sensor_id;sensor_type;location;lat;lon;timestamp;temperature;humidity
1429;DHT22;708;51.442;7.016;2022-10-31T00:01:16;17.90;71.10
1429;DHT22;708;51.442;7.016;2022-10-31T00:03:43;17.90;17.50
1429;DHT22;708;51.442;7.016;2022-10-31T00:06:10;17.90;37.00
1429;DHT22;708;51.442;7.016;2022-10-31T00:08:37;17.90;52.10
1429;DHT22;708;51.442;7.016;2022-10-31T00:11:07;18.00;87.70
1429;DHT22;708;51.442;7.016;2022-10-31T00:13:34;18.00;41.00
1429;DHT22;708;51.442;7.016;2022-10-31T00:16:02;17.90;50.80
1429;DHT22;708;51.442;7.016;2022-10-31T00:18:29;17.90;45.30
1429;DHT22;708;51.442;7.016;2022-10-31T00:21:00;17.90;99.90
1429;DHT22;708;51.442;7.016;2022-10-31T00:23:26;17.80;99.90
1429;DHT22;708;51.442;7.016;2022-10-31T00:25:54;17.80;99.90
1429;DHT22;708;51.442;7.016;2022-10-31T00:28:20;17.80;99.90
1429;DHT22;708;51.442;7.016;2022-10-31T00:30:47;17.70;99.90
1429;DHT22;708;51.442;7.016;2022-10-31T00:33:15;17.60;99.90
1429;DHT22;708;51.442;7.016;2022-10-31T00:35:42;17.50;99.90
1429;DHT22;708;51.442;7.016;2022-10-31T00:38:08;17.40;1.00
1429;DHT22;708;51.442;7.016;2022-10-31T00:40:35;17.30;99.90
1429;DHT22;708;51.442;7.016;2022-10-31T00:43:02;17.20;1.00
1429;DHT22;708;51.442;7.016;2022-10-31T00:45:28;17.20;99.90
1429;DHT22;708;51.442;7.016;2022-10-31T00:47:55;17.10;1.00
1429;DHT22;708;51.442;7.016;2022-10-31T00:50:23;17.10;1.00
1429;DHT22;708;51.442;7.016;2022-10-31T00:52:50;17.10;99.90
1429;DHT22;708;51.442;7.016;2022-10-31T00:55:16;17.20;99.90
1429;DHT22;708;51.442;7.016;2022-10-31T00:57:46;17.20;99.90
1429;DHT22;708;51.442;7.016;2022-10-31T01:00:13;17.20;1.00
1429;DHT22;708;51.442;7.016;2022-10-31T01:02:40;17.30;99.90
1429;DHT22;708;51.442;7.016;2022-10-31T01:05:07;17.40;91.50
1429;DHT22;708;51.442;7.016;2022-10-31T01:07:37;17.50;99.90
1429;DHT22;708;51.442;7.016;2022-10-31T01:10:05;17.50;1.00
1429;DHT22;708;51.442;7.016;2022-10-31T01:12:36;17.50;1.00
1429;DHT22;708;51.442;7.016;2022-10-31T01:15:03;17.50;1.00
1429;DHT22;708;51.442;7.016;2022-10-31T01:17:30;17.60;99.90
1429;DHT22;708;51.442;7.016;2022-10-31T01:19:57;17.60;99.90
1429;DHT22;708;51.442;7.016;2022-10-31T01:22:24;17.60;99.90
1429;DHT22;708;51.442;7.016;2022-10-31T01:24:52;17.70;99.90
1429;DHT22;708;51.442;7.016;2022-10-31T01:27:18;17.70;99.90
1429;DHT22;708;51.442;7.016;2022-10-31T01:29:45;17.70;99.90
1429;DHT22;708;51.442;7.016;2022-10-31T01:32:11;17.70;99.90
1429;DHT22;708;51.442;7.016;2022-10-31T01:34:38;17.60;99.90
1429;DHT22;708;51.442;7.016;2022-10-31T01:37:05;17.60;1.00
1429;DHT22;708;51.442;7.016;2022-10-31T01:39:32;17.60;1.00
1429;DHT22;708;51.442;7.016;2022-10-31T01:42:00;17.60;1.00
1429;DHT22;708;51.442;7.016;2022-10-31T01:44:51;17.50;1.00
1429;DHT22;708;51.442;7.016;2022-10-31T01:47:21;17.50;99.90
1429;DHT22;708;51.442;7.016;2022-10-31T01:49:53;17.50;99.90
1429;DHT22;708;51.442;7.016;2022-10-31T01:52:22;17.50;99.90
1429;DHT22;708;51.442;7.016;2022-10-31T01:54:53;17.40;99.90
1429;DHT22;708;51.442;7.016;2022-10-31T01:57:23;17.40;1.00
1429;DHT22;708;51.442;7.016;2022-10-31T01:59:55;17.40;99.90
1429;DHT22;708;51.442;7.016;2022-10-31T02:02:23;17.40;99.90
1429;DHT22;708;51.442;7.016;2022-10-31T02:04:52;17.40;1.00
1429;DHT22;708;51.442;7.016;2022-10-31T02:07:24;17.30;99.90
1429;DHT22;708;51.442;7.016;2022-10-31T02:09:53;17.30;99.90
1429;DHT22;708;51.442;7.016;2022-10-31T02:12:20;17.20;1.00
1429;DHT22;708;51.442;7.016;2022-10-31T02:14:48;17.10;99.90
1429;DHT22;708;51.442;7.016;2022-10-31T02:17:15;17.00;1.00
1429;DHT22;708;51.442;7.016;2022-10-31T02:19:50;16.90;1.00
1429;DHT22;708;51.442;7.016;2022-10-31T02:22:24;16.80;99.90
1429;DHT22;708;51.442;7.016;2022-10-31T02:25:05;16.70;58.20
1429;DHT22;708;51.442;7.016;2022-10-31T02:27:56;16.60;99.90
1429;DHT22;708;51.442;7.016;2022-10-31T02:30:30;16.50;1.00
1429;DHT22;708;51.442;7.016;2022-10-31T02:33:14;16.50;1.00
1429;DHT22;708;51.442;7.016;2022-10-31T02:35:50;16.50;99.90
1429;DHT22;708;51.442;7.016;2022-10-31T02:38:25;16.50;99.90
1429;DHT22;708;51.442;7.016;2022-10-31T02:41:01;16.50;99.90
1429;DHT22;708;51.442;7.016;2022-10-31T02:43:36;16.50;99.90
1429;DHT22;708;51.442;7.016;2022-10-31T02:46:11;16.50;99.90
1429;DHT22;708;51.442;7.016;2022-10-31T02:48:44;16.40;99.90
1429;DHT22;708;51.442;7.016;2022-10-31T02:51:12;16.40;99.90
1429;DHT22;708;51.442;7.016;2022-10-31T02:53:39;16.40;99.90
1429;DHT22;708;51.442;7.016;2022-10-31T02:56:11;16.30;99.90
1429;DHT22;708;51.442;7.016;2022-10-31T02:58:40;16.30;99.90
1429;DHT22;708;51.442;7.016;2022-10-31T03:01:33;16.20;99.90
1429;DHT22;708;51.442;7.016;2022-10-31T03:04:20;16.20;99.90
1429;DHT22;708;51.442;7.016;2022-10-31T03:06:56;16.10;1.00
1429;DHT22;708;51.442;7.016;2022-10-31T03:09:25;16.20;1.00
1429;DHT22;708;51.442;7.016;2022-10-31T03:11:57;16.10;1.00
1429;DHT22;708;51.442;7.016;2022-10-31T03:14:30;16.10;1.00
1429;DHT22;708;51.442;7.016;2022-10-31T03:17:00;16.00;1.00
1429;DHT22;708;51.442;7.016;2022-10-31T03:19:31;16.00;1.00
1429;DHT22;708;51.442;7.016;2022-10-31T03:22:01;15.90;1.00
1429;DHT22;708;51.442;7.016;2022-10-31T03:24:31;15.80;1.00
1429;DHT22;708;51.442;7.016;2022-10-31T03:27:00;15.70;1.00
1429;DHT22;708;51.442;7.016;2022-10-31T03:29:29;15.70;1.00
1429;DHT22;708;51.442;7.016;2022-10-31T03:32:00;15.60;1.00
1429;DHT22;708;51.442;7.016;2022-10-31T03:34:30;15.60;1.00
1429;DHT22;708;51.442;7.016;2022-10-31T03:37:00;15.50;1.00
1429;DHT22;708;51.442;7.016;2022-10-31T03:39:28;15.50;1.00
1429;DHT22;708;51.442;7.016;2022-10-31T03:42:02;15.50;1.00
1429;DHT22;708;51.442;7.016;2022-10-31T03:44:30;15.50;1.00
1429;DHT22;708;51.442;7.016;2022-10-31T03:46:58;15.40;1.00
1429;DHT22;708;51.442;7.016;2022-10-31T03:49:26;15.30;1.00
1429;DHT22;708;51.442;7.016;2022-10-31T03:51:58;15.30;1.00
1429;DHT22;708;51.442;7.016;2022-10-31T03:54:31;15.20;1.00
1429;DHT22;708;51.442;7.016;2022-10-31T03:57:03;15.20;1.00
1429;DHT22;708;51.442;7.016;2022-10-31T03:59:34;15.10;1.00
1429;DHT22;708;51.442;7.016;2022-10-31T04:02:06;15.10;4.00
1429;DHT22;708;51.442;7.016;2022-10-31T04:04:34;15.10;8.00
1429;DHT22;708;51.442;7.016;2022-10-31T04:07:05;15.10;13.30
1429;DHT22;708;51.442;7.016;2022-10-31T04:09:35;15.10;17.10
1429;DHT22;708;51.442;7.016;2022-10-31T04:12:04;15.10;17.80
1429;DHT22;708;51.442;7.016;2022-10-31T04:14:36;15.00;19.40
1429;DHT22;708;51.442;7.016;2022-10-31T04:17:07;14.90;21.40
1429;DHT22;708;51.442;7.016;2022-10-31T04:19:34;15.00;26.00
1429;DHT22;708;51.442;7.016;2022-10-31T04:22:02;15.00;31.80
1429;DHT22;708;51.442;7.016;2022-10-31T04:24:29;15.00;29.20
1429;DHT22;708;51.442;7.016;2022-10-31T04:26:56;14.90;29.50
1429;DHT22;708;51.442;7.016;2022-10-31T04:29:23;14.90;31.10
1429;DHT22;708;51.442;7.016;2022-10-31T04:31:50;14.90;31.70
1429;DHT22;708;51.442;7.016;2022-10-31T04:34:17;14.90;36.30
1429;DHT22;708;51.442;7.016;2022-10-31T04:36:43;15.00;34.40
1429;DHT22;708;51.442;7.016;2022-10-31T04:39:11;15.00;33.50
1429;DHT22;708;51.442;7.016;2022-10-31T04:41:38;15.00;32.30
1429;DHT22;708;51.442;7.016;2022-10-31T04:44:05;15.00;33.30
1429;DHT22;708;51.442;7.016;2022-10-31T04:46:31;15.00;35.40
1429;DHT22;708;51.442;7.016;2022-10-31T04:48:58;15.00;35.80
1429;DHT22;708;51.442;7.016;2022-10-31T04:51:25;15.10;33.80
1429;DHT22;708;51.442;7.016;2022-10-31T04:53:51;15.00;28.40
1429;DHT22;708;51.442;7.016;2022-10-31T04:56:19;15.00;25.70
1429;DHT22;708;51.442;7.016;2022-10-31T04:58:46;15.00;23.40
1429;DHT22;708;51.442;7.016;2022-10-31T05:01:13;15.00;20.10
1429;DHT22;708;51.442;7.016;2022-10-31T05:03:39;15.10;21.50
1429;DHT22;708;51.442;7.016;2022-10-31T05:06:06;15.00;21.50
1429;DHT22;708;51.442;7.016;2022-10-31T05:08:33;15.00;21.10
1429;DHT22;708;51.442;7.016;2022-10-31T05:11:00;15.00;20.50
1429;DHT22;708;51.442;7.016;2022-10-31T05:13:28;15.00;19.70
1429;DHT22;708;51.442;7.016;2022-10-31T05:15:56;14.90;20.90
1429;DHT22;708;51.442;7.016;2022-10-31T05:18:22;14.90;23.00
1429;DHT22;708;51.442;7.016;2022-10-31T05:20:49;14.90;22.60
1429;DHT22;708;51.442;7.016;2022-10-31T05:23:16;14.90;22.40
1429;DHT22;708;51.442;7.016;2022-10-31T05:25:43;14.80;22.70
1429;DHT22;708;51.442;7.016;2022-10-31T05:28:09;14.80;23.40
1429;DHT22;708;51.442;7.016;2022-10-31T05:30:37;14.60;24.70
1429;DHT22;708;51.442;7.016;2022-10-31T05:33:04;14.70;29.70
1429;DHT22;708;51.442;7.016;2022-10-31T05:35:32;14.80;30.20
1429;DHT22;708;51.442;7.016;2022-10-31T05:37:59;14.70;31.70
1429;DHT22;708;51.442;7.016;2022-10-31T05:40:27;14.70;35.90
1429;DHT22;708;51.442;7.016;2022-10-31T05:42:55;14.70;39.30
1429;DHT22;708;51.442;7.016;2022-10-31T05:45:23;14.70;42.90
1429;DHT22;708;51.442;7.016;2022-10-31T05:47:53;14.70;43.30
1429;DHT22;708;51.442;7.016;2022-10-31T05:50:21;14.80;42.00
1429;DHT22;708;51.442;7.016;2022-10-31T05:52:54;14.70;42.10
1429;DHT22;708;51.442;7.016;2022-10-31T05:55:21;14.70;43.80
1429;DHT22;708;51.442;7.016;2022-10-31T05:57:47;14.70;40.70
1429;DHT22;708;51.442;7.016;2022-10-31T06:00:14;14.70;39.90
1429;DHT22;708;51.442;7.016;2022-10-31T06:02:41;14.80;37.80
1429;DHT22;708;51.442;7.016;2022-10-31T06:05:09;14.70;36.90
1429;DHT22;708;51.442;7.016;2022-10-31T06:07:36;14.80;37.60
1429;DHT22;708;51.442;7.016;2022-10-31T06:10:05;14.70;37.90
1429;DHT22;708;51.442;7.016;2022-10-31T06:12:33;14.80;36.20
1429;DHT22;708;51.442;7.016;2022-10-31T06:15:03;14.80;35.80
1429;DHT22;708;51.442;7.016;2022-10-31T06:17:30;14.80;34.40
1429;DHT22;708;51.442;7.016;2022-10-31T06:19:57;14.80;35.50
1429;DHT22;708;51.442;7.016;2022-10-31T06:22:25;14.80;33.00
1429;DHT22;708;51.442;7.016;2022-10-31T06:24:51;14.80;36.30
1429;DHT22;708;51.442;7.016;2022-10-31T06:27:18;14.80;32.80
1429;DHT22;708;51.442;7.016;2022-10-31T06:29:45;14.80;31.10
1429;DHT22;708;51.442;7.016;2022-10-31T06:32:12;14.80;31.20
1429;DHT22;708;51.442;7.016;2022-10-31T06:34:40;14.80;32.90
1429;DHT22;708;51.442;7.016;2022-10-31T06:37:06;14.80;34.30
1429;DHT22;708;51.442;7.016;2022-10-31T06:39:35;14.80;35.20
1429;DHT22;708;51.442;7.016;2022-10-31T06:42:02;14.80;36.30
1429;DHT22;708;51.442;7.016;2022-10-31T06:44:30;14.80;37.60
1429;DHT22;708;51.442;7.016;2022-10-31T06:46:57;14.80;37.30
1429;DHT22;708;51.442;7.016;2022-10-31T06:49:23;14.90;33.50
1429;DHT22;708;51.442;7.016;2022-10-31T06:51:50;14.90;37.00
1429;DHT22;708;51.442;7.016;2022-10-31T06:54:17;15.00;34.10
1429;DHT22;708;51.442;7.016;2022-10-31T06:56:47;15.10;31.70
1429;DHT22;708;51.442;7.016;2022-10-31T06:59:13;15.20;29.50
1429;DHT22;708;51.442;7.016;2022-10-31T07:01:40;15.30;25.10
1429;DHT22;708;51.442;7.016;2022-10-31T07:04:10;15.30;22.00
1429;DHT22;708;51.442;7.016;2022-10-31T07:06:37;15.40;21.60
1429;DHT22;708;51.442;7.016;2022-10-31T07:09:04;15.50;17.30
1429;DHT22;708;51.442;7.016;2022-10-31T07:11:30;15.60;15.00
1429;DHT22;708;51.442;7.016;2022-10-31T07:13:59;15.60;8.80
1429;DHT22;708;51.442;7.016;2022-10-31T07:16:26;15.70;1.00
1429;DHT22;708;51.442;7.016;2022-10-31T07:18:52;15.80;1.00
1429;DHT22;708;51.442;7.016;2022-10-31T07:21:19;15.80;1.00
1429;DHT22;708;51.442;7.016;2022-10-31T07:23:47;15.90;1.00
1429;DHT22;708;51.442;7.016;2022-10-31T07:26:14;16.00;1.00
1429;DHT22;708;51.442;7.016;2022-10-31T07:28:41;16.00;1.00
1429;DHT22;708;51.442;7.016;2022-10-31T07:31:09;16.10;1.00
1429;DHT22;708;51.442;7.016;2022-10-31T07:33:36;16.30;1.00
1429;DHT22;708;51.442;7.016;2022-10-31T07:36:03;16.30;1.00
1429;DHT22;708;51.442;7.016;2022-10-31T07:38:29;16.40;99.90
1429;DHT22;708;51.442;7.016;2022-10-31T07:40:56;16.40;99.90
1429;DHT22;708;51.442;7.016;2022-10-31T07:43:23;16.40;99.90
1429;DHT22;708;51.442;7.016;2022-10-31T07:45:50;16.40;99.90
1429;DHT22;708;51.442;7.016;2022-10-31T07:48:19;16.30;99.90
1429;DHT22;708;51.442;7.016;2022-10-31T07:50:46;16.20;99.90
1429;DHT22;708;51.442;7.016;2022-10-31T07:53:13;16.20;99.90
1429;DHT22;708;51.442;7.016;2022-10-31T07:55:41;16.20;99.90
1429;DHT22;708;51.442;7.016;2022-10-31T07:58:09;16.30;99.90
1429;DHT22;708;51.442;7.016;2022-10-31T08:00:39;16.30;99.90
1429;DHT22;708;51.442;7.016;2022-10-31T08:03:08;16.30;99.90
1429;DHT22;708;51.442;7.016;2022-10-31T08:05:36;16.40;99.90
1429;DHT22;708;51.442;7.016;2022-10-31T08:08:04;16.50;32.40
1429;DHT22;708;51.442;7.016;2022-10-31T08:10:32;16.50;1.00
1429;DHT22;708;51.442;7.016;2022-10-31T08:12:59;16.70;1.00
1429;DHT22;708;51.442;7.016;2022-10-31T08:15:27;16.80;99.90
1429;DHT22;708;51.442;7.016;2022-10-31T08:17:54;16.90;1.00
1429;DHT22;708;51.442;7.016;2022-10-31T08:20:21;16.90;1.00
1429;DHT22;708;51.442;7.016;2022-10-31T08:23:00;17.00;99.90
1429;DHT22;708;51.442;7.016;2022-10-31T08:25:28;17.30;1.00
1429;DHT22;708;51.442;7.016;2022-10-31T08:27:56;17.60;1.00
1429;DHT22;708;51.442;7.016;2022-10-31T08:30:25;17.90;99.90
1429;DHT22;708;51.442;7.016;2022-10-31T08:33:00;18.30;1.00
1429;DHT22;708;51.442;7.016;2022-10-31T08:35:27;18.80;99.90
1429;DHT22;708;51.442;7.016;2022-10-31T08:37:54;19.40;1.00
1429;DHT22;708;51.442;7.016;2022-10-31T08:40:22;19.80;99.90
1429;DHT22;708;51.442;7.016;2022-10-31T08:42:56;20.20;99.90
1429;DHT22;708;51.442;7.016;2022-10-31T08:45:23;20.50;99.90
1429;DHT22;708;51.442;7.016;2022-10-31T08:47:50;20.80;99.90
1429;DHT22;708;51.442;7.016;2022-10-31T08:50:17;21.20;99.90
1429;DHT22;708;51.442;7.016;2022-10-31T08:52:44;21.60;99.90
1429;DHT22;708;51.442;7.016;2022-10-31T08:55:10;22.00;99.90
1429;DHT22;708;51.442;7.016;2022-10-31T08:57:38;22.30;99.90
1429;DHT22;708;51.442;7.016;2022-10-31T09:00:06;22.50;99.90
1429;DHT22;708;51.442;7.016;2022-10-31T09:02:33;22.60;99.90
1429;DHT22;708;51.442;7.016;2022-10-31T09:05:00;22.50;99.90
1429;DHT22;708;51.442;7.016;2022-10-31T09:07:26;22.50;99.90
1429;DHT22;708;51.442;7.016;2022-10-31T09:09:53;22.30;99.90
1429;DHT22;708;51.442;7.016;2022-10-31T09:12:21;22.10;99.90
1429;DHT22;708;51.442;7.016;2022-10-31T09:14:50;22.10;99.90
1429;DHT22;708;51.442;7.016;2022-10-31T09:17:17;22.30;99.90
1429;DHT22;708;51.442;7.016;2022-10-31T09:19:43;22.30;99.90
1429;DHT22;708;51.442;7.016;2022-10-31T09:22:10;22.50;99.90
1429;DHT22;708;51.442;7.016;2022-10-31T09:24:37;22.50;99.90
1429;DHT22;708;51.442;7.016;2022-10-31T09:27:04;22.40;99.90
1429;DHT22;708;51.442;7.016;2022-10-31T09:29:30;22.10;99.90
1429;DHT22;708;51.442;7.016;2022-10-31T09:31:58;21.80;99.90
1429;DHT22;708;51.442;7.016;2022-10-31T09:34:25;21.50;99.90
1429;DHT22;708;51.442;7.016;2022-10-31T09:36:53;21.40;99.90
1429;DHT22;708;51.442;7.016;2022-10-31T09:39:19;21.20;99.90
1429;DHT22;708;51.442;7.016;2022-10-31T09:42:03;21.00;99.90
1429;DHT22;708;51.442;7.016;2022-10-31T09:44:42;20.70;99.90
1429;DHT22;708;51.442;7.016;2022-10-31T09:47:17;20.40;99.90
1429;DHT22;708;51.442;7.016;2022-10-31T09:50:00;20.10;99.90
1429;DHT22;708;51.442;7.016;2022-10-31T09:52:30;19.90;99.90
1429;DHT22;708;51.442;7.016;2022-10-31T09:55:02;19.80;99.90
1429;DHT22;708;51.442;7.016;2022-10-31T09:57:33;19.70;99.90
1429;DHT22;708;51.442;7.016;2022-10-31T10:00:03;19.60;99.90
1429;DHT22;708;51.442;7.016;2022-10-31T10:02:35;19.60;99.90
1429;DHT22;708;51.442;7.016;2022-10-31T10:05:08;19.50;99.90
1429;DHT22;708;51.442;7.016;2022-10-31T10:07:43;19.40;99.90
1429;DHT22;708;51.442;7.016;2022-10-31T10:10:14;19.50;99.90
1429;DHT22;708;51.442;7.016;2022-10-31T10:13:08;19.50;99.90
1429;DHT22;708;51.442;7.016;2022-10-31T10:15:53;19.50;99.90
1429;DHT22;708;51.442;7.016;2022-10-31T10:18:43;19.60;99.90
1429;DHT22;708;51.442;7.016;2022-10-31T10:21:22;19.70;99.90
1429;DHT22;708;51.442;7.016;2022-10-31T10:24:00;19.60;99.90
1429;DHT22;708;51.442;7.016;2022-10-31T10:26:35;19.50;99.90
1429;DHT22;708;51.442;7.016;2022-10-31T10:29:11;19.50;99.90
1429;DHT22;708;51.442;7.016;2022-10-31T10:31:42;19.50;99.90
1429;DHT22;708;51.442;7.016;2022-10-31T10:34:19;19.50;99.90
1429;DHT22;708;51.442;7.016;2022-10-31T10:36:52;19.50;99.90
1429;DHT22;708;51.442;7.016;2022-10-31T10:39:23;19.50;99.90
1429;DHT22;708;51.442;7.016;2022-10-31T10:41:50;19.50;99.90
1429;DHT22;708;51.442;7.016;2022-10-31T10:44:37;19.50;99.90
1429;DHT22;708;51.442;7.016;2022-10-31T10:47:22;19.50;99.90
1429;DHT22;708;51.442;7.016;2022-10-31T10:50:12;19.50;99.90
1429;DHT22;708;51.442;7.016;2022-10-31T10:52:47;19.50;99.90
1429;DHT22;708;51.442;7.016;2022-10-31T10:55:24;19.70;99.90
1429;DHT22;708;51.442;7.016;2022-10-31T10:57:56;19.80;99.90
1429;DHT22;708;51.442;7.016;2022-10-31T11:00:24;19.90;99.90
1429;DHT22;708;51.442;7.016;2022-10-31T11:02:51;19.90;99.90
1429;DHT22;708;51.442;7.016;2022-10-31T11:05:24;19.90;99.90
1429;DHT22;708;51.442;7.016;2022-10-31T11:07:51;20.00;99.90
1429;DHT22;708;51.442;7.016;2022-10-31T11:10:18;20.00;99.90
1429;DHT22;708;51.442;7.016;2022-10-31T11:12:56;20.00;99.90
1429;DHT22;708;51.442;7.016;2022-10-31T11:15:25;20.00;99.90
1429;DHT22;708;51.442;7.016;2022-10-31T11:17:55;19.90;99.90
1429;DHT22;708;51.442;7.016;2022-10-31T11:20:30;19.80;99.90
1429;DHT22;708;51.442;7.016;2022-10-31T11:23:05;19.80;99.90
1429;DHT22;708;51.442;7.016;2022-10-31T11:25:32;19.90;99.90
1429;DHT22;708;51.442;7.016;2022-10-31T11:28:00;19.90;99.90
1429;DHT22;708;51.442;7.016;2022-10-31T11:30:27;20.00;99.90
1429;DHT22;708;51.442;7.016;2022-10-31T11:32:54;20.00;99.90
1429;DHT22;708;51.442;7.016;2022-10-31T11:35:22;20.20;99.90
1429;DHT22;708;51.442;7.016;2022-10-31T11:37:54;20.30;99.90
1429;DHT22;708;51.442;7.016;2022-10-31T11:40:25;20.50;99.90
1429;DHT22;708;51.442;7.016;2022-10-31T11:42:55;20.70;99.90
1429;DHT22;708;51.442;7.016;2022-10-31T11:45:29;20.70;99.90
1429;DHT22;708;51.442;7.016;2022-10-31T11:47:58;20.60;99.90
1429;DHT22;708;51.442;7.016;2022-10-31T11:50:28;20.60;99.90
1429;DHT22;708;51.442;7.016;2022-10-31T11:53:00;20.60;99.90
1429;DHT22;708;51.442;7.016;2022-10-31T11:55:32;20.60;99.90
1429;DHT22;708;51.442;7.016;2022-10-31T11:57:59;20.50;99.90
1429;DHT22;708;51.442;7.016;2022-10-31T12:00:28;20.50;99.90
1429;DHT22;708;51.442;7.016;2022-10-31T12:03:10;20.50;99.90
1429;DHT22;708;51.442;7.016;2022-10-31T12:05:38;20.50;99.90
1429;DHT22;708;51.442;7.016;2022-10-31T12:08:09;20.50;99.90
1429;DHT22;708;51.442;7.016;2022-10-31T12:10:44;20.60;99.90
1429;DHT22;708;51.442;7.016;2022-10-31T12:13:32;20.70;99.90
1429;DHT22;708;51.442;7.016;2022-10-31T12:16:05;20.80;99.90
1429;DHT22;708;51.442;7.016;2022-10-31T12:18:49;20.80;99.90
1429;DHT22;708;51.442;7.016;2022-10-31T12:21:27;20.80;99.90
1429;DHT22;708;51.442;7.016;2022-10-31T12:24:13;20.80;99.90
1429;DHT22;708;51.442;7.016;2022-10-31T12:26:52;20.80;99.90
1429;DHT22;708;51.442;7.016;2022-10-31T12:29:34;20.90;99.90
1429;DHT22;708;51.442;7.016;2022-10-31T12:32:15;20.90;99.90
1429;DHT22;708;51.442;7.016;2022-10-31T12:37:52;20.80;99.90
1429;DHT22;708;51.442;7.016;2022-10-31T12:40:33;20.90;99.90
1429;DHT22;708;51.442;7.016;2022-10-31T12:43:13;21.00;99.90
1429;DHT22;708;51.442;7.016;2022-10-31T12:45:52;21.00;99.90
1429;DHT22;708;51.442;7.016;2022-10-31T12:49:04;21.10;99.90
1429;DHT22;708;51.442;7.016;2022-10-31T12:51:39;21.20;99.90
1429;DHT22;708;51.442;7.016;2022-10-31T12:54:20;21.20;99.90
1429;DHT22;708;51.442;7.016;2022-10-31T12:56:56;21.20;99.90
1429;DHT22;708;51.442;7.016;2022-10-31T12:59:30;21.20;99.90
1429;DHT22;708;51.442;7.016;2022-10-31T13:02:02;21.30;99.90
1429;DHT22;708;51.442;7.016;2022-10-31T13:04:37;21.40;99.90
1429;DHT22;708;51.442;7.016;2022-10-31T13:07:19;21.50;99.90
1429;DHT22;708;51.442;7.016;2022-10-31T13:09:52;21.50;99.90
1429;DHT22;708;51.442;7.016;2022-10-31T13:12:22;21.60;99.90
1429;DHT22;708;51.442;7.016;2022-10-31T13:14:53;21.70;99.90
1429;DHT22;708;51.442;7.016;2022-10-31T13:17:27;21.60;99.90
1429;DHT22;708;51.442;7.016;2022-10-31T13:20:03;21.80;99.90
1429;DHT22;708;51.442;7.016;2022-10-31T13:22:32;21.90;99.90
1429;DHT22;708;51.442;7.016;2022-10-31T13:25:11;22.00;99.90
1429;DHT22;708;51.442;7.016;2022-10-31T13:27:47;22.00;99.90
1429;DHT22;708;51.442;7.016;2022-10-31T13:30:19;22.10;99.90
1429;DHT22;708;51.442;7.016;2022-10-31T13:32:52;22.10;99.90
1429;DHT22;708;51.442;7.016;2022-10-31T13:35:25;22.10;99.90
1429;DHT22;708;51.442;7.016;2022-10-31T13:38:05;22.00;99.90
1429;DHT22;708;51.442;7.016;2022-10-31T13:40:42;22.00;99.90
1429;DHT22;708;51.442;7.016;2022-10-31T13:43:21;21.90;99.90
1429;DHT22;708;51.442;7.016;2022-10-31T13:45:51;21.80;99.90
1429;DHT22;708;51.442;7.016;2022-10-31T13:48:32;21.80;99.90
1429;DHT22;708;51.442;7.016;2022-10-31T13:51:01;21.80;99.90
1429;DHT22;708;51.442;7.016;2022-10-31T13:53:43;21.80;99.90
1429;DHT22;708;51.442;7.016;2022-10-31T13:56:15;21.70;99.90
1429;DHT22;708;51.442;7.016;2022-10-31T13:59:02;21.80;99.90
1429;DHT22;708;51.442;7.016;2022-10-31T14:01:31;21.90;95.90
1429;DHT22;708;51.442;7.016;2022-10-31T14:04:01;22.00;92.80
1429;DHT22;708;51.442;7.016;2022-10-31T14:06:38;22.00;89.60
1429;DHT22;708;51.442;7.016;2022-10-31T14:09:18;22.00;83.50
1429;DHT22;708;51.442;7.016;2022-10-31T14:11:46;22.10;79.50
1429;DHT22;708;51.442;7.016;2022-10-31T14:14:15;22.10;77.50
1429;DHT22;708;51.442;7.016;2022-10-31T14:16:45;22.10;76.60
1429;DHT22;708;51.442;7.016;2022-10-31T14:19:16;22.00;72.70
1429;DHT22;708;51.442;7.016;2022-10-31T14:21:45;22.00;68.80
1429;DHT22;708;51.442;7.016;2022-10-31T14:24:31;22.00;66.10
1429;DHT22;708;51.442;7.016;2022-10-31T14:27:00;22.00;65.20
1429;DHT22;708;51.442;7.016;2022-10-31T14:29:29;22.00;65.30
1429;DHT22;708;51.442;7.016;2022-10-31T14:32:04;21.90;65.50
1429;DHT22;708;51.442;7.016;2022-10-31T14:34:39;21.90;66.10
1429;DHT22;708;51.442;7.016;2022-10-31T14:37:35;21.80;65.10
1429;DHT22;708;51.442;7.016;2022-10-31T14:40:17;21.80;64.20
1429;DHT22;708;51.442;7.016;2022-10-31T14:43:02;21.70;63.20
1429;DHT22;708;51.442;7.016;2022-10-31T14:45:44;21.60;62.80
1429;DHT22;708;51.442;7.016;2022-10-31T14:51:07;21.40;63.30
1429;DHT22;708;51.442;7.016;2022-10-31T14:53:39;21.30;62.70
1429;DHT22;708;51.442;7.016;2022-10-31T14:56:10;21.20;63.90
1429;DHT22;708;51.442;7.016;2022-10-31T14:58:39;21.20;64.60
1429;DHT22;708;51.442;7.016;2022-10-31T15:01:19;21.20;65.20
1429;DHT22;708;51.442;7.016;2022-10-31T15:03:47;21.20;64.10
1429;DHT22;708;51.442;7.016;2022-10-31T15:06:16;21.20;66.00
1429;DHT22;708;51.442;7.016;2022-10-31T15:08:45;21.20;64.70
1429;DHT22;708;51.442;7.016;2022-10-31T15:11:14;21.20;64.40
1429;DHT22;708;51.442;7.016;2022-10-31T15:13:42;21.20;65.70
1429;DHT22;708;51.442;7.016;2022-10-31T15:16:12;21.20;64.40
1429;DHT22;708;51.442;7.016;2022-10-31T15:18:52;21.20;65.30
1429;DHT22;708;51.442;7.016;2022-10-31T15:21:21;21.10;65.20
1429;DHT22;708;51.442;7.016;2022-10-31T15:23:50;21.00;65.50
1429;DHT22;708;51.442;7.016;2022-10-31T15:26:19;21.00;67.10
1429;DHT22;708;51.442;7.016;2022-10-31T15:28:56;21.00;67.00
1429;DHT22;708;51.442;7.016;2022-10-31T15:31:25;21.00;68.60
1429;DHT22;708;51.442;7.016;2022-10-31T15:33:53;20.90;67.50
1429;DHT22;708;51.442;7.016;2022-10-31T15:36:24;20.90;69.60
1429;DHT22;708;51.442;7.016;2022-10-31T15:38:51;20.90;71.20
1429;DHT22;708;51.442;7.016;2022-10-31T15:41:24;20.80;71.60
1429;DHT22;708;51.442;7.016;2022-10-31T15:43:54;20.80;73.60
1429;DHT22;708;51.442;7.016;2022-10-31T15:46:21;20.70;73.90
1429;DHT22;708;51.442;7.016;2022-10-31T15:48:49;20.60;88.70
1429;DHT22;708;51.442;7.016;2022-10-31T15:51:16;20.50;76.40
1429;DHT22;708;51.442;7.016;2022-10-31T15:53:46;20.50;78.30
1429;DHT22;708;51.442;7.016;2022-10-31T15:56:20;20.40;80.50
1429;DHT22;708;51.442;7.016;2022-10-31T15:58:49;20.40;83.20
1429;DHT22;708;51.442;7.016;2022-10-31T16:01:22;20.30;81.40
1429;DHT22;708;51.442;7.016;2022-10-31T16:04:02;20.20;83.50
1429;DHT22;708;51.442;7.016;2022-10-31T16:06:30;20.20;83.70
1429;DHT22;708;51.442;7.016;2022-10-31T16:08:56;20.10;84.30
1429;DHT22;708;51.442;7.016;2022-10-31T16:11:28;20.00;83.30
1429;DHT22;708;51.442;7.016;2022-10-31T16:13:59;20.00;86.20
1429;DHT22;708;51.442;7.016;2022-10-31T16:16:27;20.00;87.30
1429;DHT22;708;51.442;7.016;2022-10-31T16:18:56;19.90;88.60
1429;DHT22;708;51.442;7.016;2022-10-31T16:21:27;19.90;87.80
1429;DHT22;708;51.442;7.016;2022-10-31T16:23:58;19.90;87.00
1429;DHT22;708;51.442;7.016;2022-10-31T16:26:26;19.90;89.20
1429;DHT22;708;51.442;7.016;2022-10-31T16:28:56;19.80;90.80
1429;DHT22;708;51.442;7.016;2022-10-31T16:31:29;19.70;90.80
1429;DHT22;708;51.442;7.016;2022-10-31T16:34:05;19.70;91.60
1429;DHT22;708;51.442;7.016;2022-10-31T16:36:34;19.60;91.80
1429;DHT22;708;51.442;7.016;2022-10-31T16:39:04;19.60;91.70
1429;DHT22;708;51.442;7.016;2022-10-31T16:41:37;19.50;90.20
1429;DHT22;708;51.442;7.016;2022-10-31T16:44:06;19.50;90.80
1429;DHT22;708;51.442;7.016;2022-10-31T16:46:33;19.40;90.00
1429;DHT22;708;51.442;7.016;2022-10-31T16:48:59;19.40;89.20